Edmonton International Airport

CYEG · 艾伯塔, 加拿大

2022年12月8日 05:002022年12月8日 17:00有效
时间
星期四
05:00
星期四
06:00
星期四
07:00
星期四
08:00
星期四
09:00
星期四
10:00
星期四
11:00
星期四
12:00
星期四
13:00
星期四
14:00
星期四
15:00
星期四
16:00
代码
VFR
VFR
VFR
VFR
VFR
VFR
VFR
VFR
VFR
VFR
VFR
VFR
天气
天空晴朗
天空晴朗
天空晴朗
天空晴朗
天空晴朗
天空晴朗
天空晴朗
天空晴朗
天空晴朗
天空晴朗
天空晴朗
天空晴朗
能见度
6 mi+
6 mi+
6 mi+
6 mi+
6 mi+
6 mi+
6 mi+
6 mi+
6 mi+
6 mi+
6 mi+
6 mi+
天花板
-
-
-
-
-
-
-
-
-
-
-
-
Var
Var
Var
Var
220°
220°
220°
220°
220°
220°
220°
220°
220°
220°
220°
220°
220°
220°
220°
220°
220°
220°
220°
220°
速度
3 kt
3 kt
12 kt
12 kt
12 kt
12 kt
12 kt
12 kt
12 kt
12 kt
12 kt
12 kt
阵风
温度/星期日
08:31
16:23

原版的

TAF CYQF 081140Z 0812/0824 VRB03KT P6SM SCT240
BECMG 0814/0816 22012KT RMK FCST BASED ON AUTO OBS. NXT FCST BY 081800Z

TAF Edmonton International Airport

Edmonton International Airport是,加拿大中的大型机场。 该机场有2条跑道: 2/20 和 12/30. 该领域的国际民航组织标志是CYEG 它的国际航空运输协会代码是YEG.

这份报告是针对2022年12月8日 04:40, 当地时间在Red Deer Regional Airport进行的。 从2022年12月8日 05:00到2022年12月8日 17:00, 当地时间有效.

预报

  • 在星期四 05:00和17:00之间

    • 风: 可变方向的风很小或没有。
    • 能见度: 6 mi 或者更多
    • 乌云: 疏云,零星散落的云朵在24.000 ft的高度.

  • 介于星期四 07:00和09:00之间

    • 风: 风来自220°方向,速度为12 kt。

白天

今天,太阳从08:36升起,在16:16降落。 这适用于Edmonton International Airport,世界夏令时可能有所不同。 当地时间与世界标准时间之间的时差为-7 小时。 当前,没有夏令时有效。

我们和第三方通过cookies跟踪您在我们网站上的互联网行为。如果你继续,我们认为你同意我们的饼干政策